sensor_id;sensor_type;location;lat;lon;timestamp;temperature;humidity
17174;DHT22;8702;48.130;-1.696;2022-09-09T00:01:04;17.00;99.90
17174;DHT22;8702;48.130;-1.696;2022-09-09T00:03:40;17.00;99.90
17174;DHT22;8702;48.130;-1.696;2022-09-09T00:06:20;17.00;99.90
17174;DHT22;8702;48.130;-1.696;2022-09-09T00:09:01;16.90;99.90
17174;DHT22;8702;48.130;-1.696;2022-09-09T00:11:36;16.90;99.90
17174;DHT22;8702;48.130;-1.696;2022-09-09T00:14:16;17.00;99.90
17174;DHT22;8702;48.130;-1.696;2022-09-09T00:16:50;17.00;99.90
17174;DHT22;8702;48.130;-1.696;2022-09-09T00:19:23;17.00;99.90
17174;DHT22;8702;48.130;-1.696;2022-09-09T00:22:01;17.00;99.90
17174;DHT22;8702;48.130;-1.696;2022-09-09T00:24:42;17.00;99.90
17174;DHT22;8702;48.130;-1.696;2022-09-09T00:27:19;17.00;99.90
17174;DHT22;8702;48.130;-1.696;2022-09-09T00:29:53;16.90;99.90
17174;DHT22;8702;48.130;-1.696;2022-09-09T00:32:22;17.00;99.90
17174;DHT22;8702;48.130;-1.696;2022-09-09T00:34:54;16.90;99.90
17174;DHT22;8702;48.130;-1.696;2022-09-09T00:37:25;16.90;99.90
17174;DHT22;8702;48.130;-1.696;2022-09-09T00:39:55;16.90;99.90
17174;DHT22;8702;48.130;-1.696;2022-09-09T00:42:27;16.80;99.90
17174;DHT22;8702;48.130;-1.696;2022-09-09T00:45:01;16.90;99.90
17174;DHT22;8702;48.130;-1.696;2022-09-09T00:47:40;16.90;99.90
17174;DHT22;8702;48.130;-1.696;2022-09-09T00:53:27;16.80;99.90
17174;DHT22;8702;48.130;-1.696;2022-09-09T00:56:05;16.80;99.90
17174;DHT22;8702;48.130;-1.696;2022-09-09T00:58:34;16.80;99.90
17174;DHT22;8702;48.130;-1.696;2022-09-09T01:01:05;16.70;99.90
17174;DHT22;8702;48.130;-1.696;2022-09-09T01:03:35;16.80;99.90
17174;DHT22;8702;48.130;-1.696;2022-09-09T01:06:15;16.70;99.90
17174;DHT22;8702;48.130;-1.696;2022-09-09T01:08:53;16.70;99.90
17174;DHT22;8702;48.130;-1.696;2022-09-09T01:11:28;16.70;99.90
17174;DHT22;8702;48.130;-1.696;2022-09-09T01:14:11;16.70;99.90
17174;DHT22;8702;48.130;-1.696;2022-09-09T01:16:40;16.70;99.90
17174;DHT22;8702;48.130;-1.696;2022-09-09T01:19:11;16.70;99.90
17174;DHT22;8702;48.130;-1.696;2022-09-09T01:21:49;16.60;99.90
17174;DHT22;8702;48.130;-1.696;2022-09-09T01:24:28;16.60;99.90
17174;DHT22;8702;48.130;-1.696;2022-09-09T01:27:01;16.60;99.90
17174;DHT22;8702;48.130;-1.696;2022-09-09T01:29:29;16.60;99.90
17174;DHT22;8702;48.130;-1.696;2022-09-09T01:31:57;16.60;99.90
17174;DHT22;8702;48.130;-1.696;2022-09-09T01:34:27;16.60;99.90
17174;DHT22;8702;48.130;-1.696;2022-09-09T01:36:59;16.60;99.90
17174;DHT22;8702;48.130;-1.696;2022-09-09T01:39:30;16.60;99.90
17174;DHT22;8702;48.130;-1.696;2022-09-09T01:41:59;16.60;99.90
17174;DHT22;8702;48.130;-1.696;2022-09-09T01:44:27;16.60;99.90
17174;DHT22;8702;48.130;-1.696;2022-09-09T01:46:54;16.50;99.90
17174;DHT22;8702;48.130;-1.696;2022-09-09T01:49:21;16.60;99.90
17174;DHT22;8702;48.130;-1.696;2022-09-09T01:51:50;16.60;99.90
17174;DHT22;8702;48.130;-1.696;2022-09-09T01:54:18;16.60;99.90
17174;DHT22;8702;48.130;-1.696;2022-09-09T01:56:52;16.60;99.90
17174;DHT22;8702;48.130;-1.696;2022-09-09T01:59:42;16.60;99.90
17174;DHT22;8702;48.130;-1.696;2022-09-09T02:02:14;16.60;99.90
17174;DHT22;8702;48.130;-1.696;2022-09-09T02:04:44;16.60;99.90
17174;DHT22;8702;48.130;-1.696;2022-09-09T02:07:31;16.60;99.90
17174;DHT22;8702;48.130;-1.696;2022-09-09T02:10:08;16.60;99.90
17174;DHT22;8702;48.130;-1.696;2022-09-09T02:12:36;16.60;99.90
17174;DHT22;8702;48.130;-1.696;2022-09-09T02:15:13;16.60;99.90
17174;DHT22;8702;48.130;-1.696;2022-09-09T02:17:42;16.60;99.90
17174;DHT22;8702;48.130;-1.696;2022-09-09T02:20:13;16.60;99.90
17174;DHT22;8702;48.130;-1.696;2022-09-09T02:22:42;16.60;99.90
17174;DHT22;8702;48.130;-1.696;2022-09-09T02:25:13;16.60;99.90
17174;DHT22;8702;48.130;-1.696;2022-09-09T02:27:43;16.60;99.90
17174;DHT22;8702;48.130;-1.696;2022-09-09T02:30:13;16.70;99.90
17174;DHT22;8702;48.130;-1.696;2022-09-09T02:32:42;16.70;99.90
17174;DHT22;8702;48.130;-1.696;2022-09-09T02:35:12;16.70;99.90
17174;DHT22;8702;48.130;-1.696;2022-09-09T02:37:42;16.70;99.90
17174;DHT22;8702;48.130;-1.696;2022-09-09T02:40:11;16.70;99.90
17174;DHT22;8702;48.130;-1.696;2022-09-09T02:42:39;16.70;99.90
17174;DHT22;8702;48.130;-1.696;2022-09-09T02:45:08;16.60;99.90
17174;DHT22;8702;48.130;-1.696;2022-09-09T02:47:41;16.60;99.90
17174;DHT22;8702;48.130;-1.696;2022-09-09T02:50:14;16.50;99.90
17174;DHT22;8702;48.130;-1.696;2022-09-09T02:52:58;16.50;99.90
17174;DHT22;8702;48.130;-1.696;2022-09-09T02:55:35;16.60;99.90
17174;DHT22;8702;48.130;-1.696;2022-09-09T02:58:07;16.60;99.90
17174;DHT22;8702;48.130;-1.696;2022-09-09T03:00:36;16.50;99.90
17174;DHT22;8702;48.130;-1.696;2022-09-09T03:03:05;16.60;99.90
17174;DHT22;8702;48.130;-1.696;2022-09-09T03:05:34;16.60;99.90
17174;DHT22;8702;48.130;-1.696;2022-09-09T03:08:01;16.70;99.90
17174;DHT22;8702;48.130;-1.696;2022-09-09T03:10:28;16.70;99.90
17174;DHT22;8702;48.130;-1.696;2022-09-09T03:12:56;16.70;99.90
17174;DHT22;8702;48.130;-1.696;2022-09-09T03:15:23;16.70;99.90
17174;DHT22;8702;48.130;-1.696;2022-09-09T03:17:55;16.70;99.90
17174;DHT22;8702;48.130;-1.696;2022-09-09T03:20:24;16.80;99.90
17174;DHT22;8702;48.130;-1.696;2022-09-09T03:22:52;16.80;99.90
17174;DHT22;8702;48.130;-1.696;2022-09-09T03:25:19;16.80;99.90
17174;DHT22;8702;48.130;-1.696;2022-09-09T03:27:46;16.80;99.90
17174;DHT22;8702;48.130;-1.696;2022-09-09T03:30:13;16.80;99.90
17174;DHT22;8702;48.130;-1.696;2022-09-09T03:32:41;16.70;99.90
17174;DHT22;8702;48.130;-1.696;2022-09-09T03:35:08;16.70;99.90
17174;DHT22;8702;48.130;-1.696;2022-09-09T03:37:36;16.80;99.90
17174;DHT22;8702;48.130;-1.696;2022-09-09T03:40:05;16.80;99.90
17174;DHT22;8702;48.130;-1.696;2022-09-09T03:42:32;16.80;99.90
17174;DHT22;8702;48.130;-1.696;2022-09-09T03:45:02;16.80;99.90
17174;DHT22;8702;48.130;-1.696;2022-09-09T03:47:30;16.80;99.90
17174;DHT22;8702;48.130;-1.696;2022-09-09T03:49:57;16.80;99.90
17174;DHT22;8702;48.130;-1.696;2022-09-09T03:52:24;16.80;99.90
17174;DHT22;8702;48.130;-1.696;2022-09-09T03:54:53;16.80;99.90
17174;DHT22;8702;48.130;-1.696;2022-09-09T03:57:22;16.80;99.90
17174;DHT22;8702;48.130;-1.696;2022-09-09T03:59:49;16.80;99.90
17174;DHT22;8702;48.130;-1.696;2022-09-09T04:02:16;16.80;99.90
17174;DHT22;8702;48.130;-1.696;2022-09-09T04:04:43;16.90;99.90
17174;DHT22;8702;48.130;-1.696;2022-09-09T04:07:10;16.80;99.90
17174;DHT22;8702;48.130;-1.696;2022-09-09T04:09:37;16.80;99.90
17174;DHT22;8702;48.130;-1.696;2022-09-09T04:12:06;16.80;99.90
17174;DHT22;8702;48.130;-1.696;2022-09-09T04:14:33;16.80;99.90
17174;DHT22;8702;48.130;-1.696;2022-09-09T04:17:00;16.80;99.90
17174;DHT22;8702;48.130;-1.696;2022-09-09T04:19:29;16.70;99.90
17174;DHT22;8702;48.130;-1.696;2022-09-09T04:21:57;16.70;99.90
17174;DHT22;8702;48.130;-1.696;2022-09-09T04:24:24;16.60;99.90
17174;DHT22;8702;48.130;-1.696;2022-09-09T04:26:54;16.70;99.90
17174;DHT22;8702;48.130;-1.696;2022-09-09T04:29:23;16.70;99.90
17174;DHT22;8702;48.130;-1.696;2022-09-09T04:31:50;16.60;99.90
17174;DHT22;8702;48.130;-1.696;2022-09-09T04:34:17;16.60;99.90
17174;DHT22;8702;48.130;-1.696;2022-09-09T04:36:43;16.60;99.90
17174;DHT22;8702;48.130;-1.696;2022-09-09T04:39:11;16.60;99.90
17174;DHT22;8702;48.130;-1.696;2022-09-09T04:41:38;16.60;99.90
17174;DHT22;8702;48.130;-1.696;2022-09-09T04:44:05;16.50;99.90
17174;DHT22;8702;48.130;-1.696;2022-09-09T04:46:33;16.50;99.90
17174;DHT22;8702;48.130;-1.696;2022-09-09T04:49:00;16.50;99.90
17174;DHT22;8702;48.130;-1.696;2022-09-09T04:51:27;16.50;99.90
17174;DHT22;8702;48.130;-1.696;2022-09-09T04:53:56;16.50;99.90
17174;DHT22;8702;48.130;-1.696;2022-09-09T04:56:23;16.60;99.90
17174;DHT22;8702;48.130;-1.696;2022-09-09T04:58:52;16.40;99.90
17174;DHT22;8702;48.130;-1.696;2022-09-09T05:01:21;16.40;99.90
17174;DHT22;8702;48.130;-1.696;2022-09-09T05:03:51;16.50;99.90
17174;DHT22;8702;48.130;-1.696;2022-09-09T05:06:20;16.50;99.90
17174;DHT22;8702;48.130;-1.696;2022-09-09T05:08:47;16.50;99.90
17174;DHT22;8702;48.130;-1.696;2022-09-09T05:11:19;16.50;99.90
17174;DHT22;8702;48.130;-1.696;2022-09-09T05:13:49;16.50;99.90
17174;DHT22;8702;48.130;-1.696;2022-09-09T05:16:17;16.40;99.90
17174;DHT22;8702;48.130;-1.696;2022-09-09T05:18:44;16.40;99.90
17174;DHT22;8702;48.130;-1.696;2022-09-09T05:21:15;16.50;99.90
17174;DHT22;8702;48.130;-1.696;2022-09-09T05:23:42;16.40;99.90
17174;DHT22;8702;48.130;-1.696;2022-09-09T05:26:13;16.50;99.90
17174;DHT22;8702;48.130;-1.696;2022-09-09T05:28:40;16.50;99.90
17174;DHT22;8702;48.130;-1.696;2022-09-09T05:31:08;16.50;99.90
17174;DHT22;8702;48.130;-1.696;2022-09-09T05:33:38;16.50;99.90
17174;DHT22;8702;48.130;-1.696;2022-09-09T05:36:08;16.50;99.90
17174;DHT22;8702;48.130;-1.696;2022-09-09T05:38:37;16.50;99.90
17174;DHT22;8702;48.130;-1.696;2022-09-09T05:41:05;16.50;99.90
17174;DHT22;8702;48.130;-1.696;2022-09-09T05:43:32;16.50;99.90
17174;DHT22;8702;48.130;-1.696;2022-09-09T05:46:02;16.60;99.90
17174;DHT22;8702;48.130;-1.696;2022-09-09T05:48:30;16.60;99.90
17174;DHT22;8702;48.130;-1.696;2022-09-09T05:50:58;16.60;99.90
17174;DHT22;8702;48.130;-1.696;2022-09-09T05:53:25;16.50;99.90
17174;DHT22;8702;48.130;-1.696;2022-09-09T05:56:00;16.50;99.90
17174;DHT22;8702;48.130;-1.696;2022-09-09T05:58:29;16.40;99.90
17174;DHT22;8702;48.130;-1.696;2022-09-09T06:01:07;16.40;99.90
17174;DHT22;8702;48.130;-1.696;2022-09-09T06:03:36;16.40;99.90
17174;DHT22;8702;48.130;-1.696;2022-09-09T06:06:05;16.30;99.90
17174;DHT22;8702;48.130;-1.696;2022-09-09T06:08:33;16.30;99.90
17174;DHT22;8702;48.130;-1.696;2022-09-09T06:11:05;16.30;99.90
17174;DHT22;8702;48.130;-1.696;2022-09-09T06:13:32;16.30;99.90
17174;DHT22;8702;48.130;-1.696;2022-09-09T06:16:01;16.30;99.90
17174;DHT22;8702;48.130;-1.696;2022-09-09T06:18:28;16.40;99.90
17174;DHT22;8702;48.130;-1.696;2022-09-09T06:20:56;16.30;99.90
17174;DHT22;8702;48.130;-1.696;2022-09-09T06:23:23;16.40;99.90
17174;DHT22;8702;48.130;-1.696;2022-09-09T06:25:51;16.40;99.90
17174;DHT22;8702;48.130;-1.696;2022-09-09T06:28:19;16.40;99.90
17174;DHT22;8702;48.130;-1.696;2022-09-09T06:30:46;16.40;99.90
17174;DHT22;8702;48.130;-1.696;2022-09-09T06:33:13;16.50;99.90
17174;DHT22;8702;48.130;-1.696;2022-09-09T06:35:40;16.40;99.90
17174;DHT22;8702;48.130;-1.696;2022-09-09T06:38:07;16.50;99.90
17174;DHT22;8702;48.130;-1.696;2022-09-09T06:40:34;16.60;99.90
17174;DHT22;8702;48.130;-1.696;2022-09-09T06:43:02;16.60;99.90
17174;DHT22;8702;48.130;-1.696;2022-09-09T06:45:30;16.60;99.90
17174;DHT22;8702;48.130;-1.696;2022-09-09T06:47:57;16.60;99.90
17174;DHT22;8702;48.130;-1.696;2022-09-09T06:50:24;16.60;99.90
17174;DHT22;8702;48.130;-1.696;2022-09-09T06:52:51;16.70;99.90
17174;DHT22;8702;48.130;-1.696;2022-09-09T06:55:18;16.60;99.90
17174;DHT22;8702;48.130;-1.696;2022-09-09T06:57:46;16.70;99.90
17174;DHT22;8702;48.130;-1.696;2022-09-09T07:00:14;16.70;99.90
17174;DHT22;8702;48.130;-1.696;2022-09-09T07:02:42;16.80;99.90
17174;DHT22;8702;48.130;-1.696;2022-09-09T07:05:10;16.80;99.90
17174;DHT22;8702;48.130;-1.696;2022-09-09T07:07:37;16.80;99.90
17174;DHT22;8702;48.130;-1.696;2022-09-09T07:10:05;16.90;99.90
17174;DHT22;8702;48.130;-1.696;2022-09-09T07:12:33;17.00;99.90
17174;DHT22;8702;48.130;-1.696;2022-09-09T07:15:00;17.60;99.90
17174;DHT22;8702;48.130;-1.696;2022-09-09T07:17:27;17.10;99.90
17174;DHT22;8702;48.130;-1.696;2022-09-09T07:19:56;17.10;99.90
17174;DHT22;8702;48.130;-1.696;2022-09-09T07:22:23;17.10;99.90
17174;DHT22;8702;48.130;-1.696;2022-09-09T07:24:50;17.10;99.90
17174;DHT22;8702;48.130;-1.696;2022-09-09T07:27:17;17.10;99.90
17174;DHT22;8702;48.130;-1.696;2022-09-09T07:29:44;17.10;99.90
17174;DHT22;8702;48.130;-1.696;2022-09-09T07:32:11;17.10;99.90
17174;DHT22;8702;48.130;-1.696;2022-09-09T07:34:38;17.20;99.90
17174;DHT22;8702;48.130;-1.696;2022-09-09T07:37:07;17.20;99.90
17174;DHT22;8702;48.130;-1.696;2022-09-09T07:39:37;17.30;99.90
17174;DHT22;8702;48.130;-1.696;2022-09-09T07:42:04;17.30;99.90
17174;DHT22;8702;48.130;-1.696;2022-09-09T07:44:31;17.30;99.90
17174;DHT22;8702;48.130;-1.696;2022-09-09T07:47:00;17.30;99.90
17174;DHT22;8702;48.130;-1.696;2022-09-09T07:49:27;17.30;99.90
17174;DHT22;8702;48.130;-1.696;2022-09-09T07:51:54;17.20;99.90
17174;DHT22;8702;48.130;-1.696;2022-09-09T07:54:23;17.20;99.90
17174;DHT22;8702;48.130;-1.696;2022-09-09T07:56:50;17.20;99.90
17174;DHT22;8702;48.130;-1.696;2022-09-09T07:59:18;17.20;99.90
17174;DHT22;8702;48.130;-1.696;2022-09-09T08:01:46;17.20;99.90
17174;DHT22;8702;48.130;-1.696;2022-09-09T08:04:15;17.30;99.90
17174;DHT22;8702;48.130;-1.696;2022-09-09T08:06:44;17.40;99.90
17174;DHT22;8702;48.130;-1.696;2022-09-09T08:09:12;17.50;99.90
17174;DHT22;8702;48.130;-1.696;2022-09-09T08:11:42;17.60;99.90
17174;DHT22;8702;48.130;-1.696;2022-09-09T08:14:09;17.70;99.90
17174;DHT22;8702;48.130;-1.696;2022-09-09T08:16:40;17.70;99.90
17174;DHT22;8702;48.130;-1.696;2022-09-09T08:19:07;17.60;99.90
17174;DHT22;8702;48.130;-1.696;2022-09-09T08:21:37;17.60;99.90
17174;DHT22;8702;48.130;-1.696;2022-09-09T08:24:07;17.60;99.90
17174;DHT22;8702;48.130;-1.696;2022-09-09T08:26:37;17.60;99.90
17174;DHT22;8702;48.130;-1.696;2022-09-09T08:29:07;17.60;99.90
17174;DHT22;8702;48.130;-1.696;2022-09-09T08:31:37;17.60;99.90
17174;DHT22;8702;48.130;-1.696;2022-09-09T08:34:05;17.60;99.90
17174;DHT22;8702;48.130;-1.696;2022-09-09T08:36:34;17.60;99.90
17174;DHT22;8702;48.130;-1.696;2022-09-09T08:39:03;17.70;99.90
17174;DHT22;8702;48.130;-1.696;2022-09-09T08:41:40;17.70;99.90
17174;DHT22;8702;48.130;-1.696;2022-09-09T08:44:13;17.80;99.90
17174;DHT22;8702;48.130;-1.696;2022-09-09T08:46:48;17.70;99.90
17174;DHT22;8702;48.130;-1.696;2022-09-09T08:49:39;17.70;99.90
17174;DHT22;8702;48.130;-1.696;2022-09-09T08:52:13;17.80;99.90
17174;DHT22;8702;48.130;-1.696;2022-09-09T08:54:44;17.90;99.90
17174;DHT22;8702;48.130;-1.696;2022-09-09T08:57:16;17.90;99.90
17174;DHT22;8702;48.130;-1.696;2022-09-09T08:59:46;17.80;99.90
17174;DHT22;8702;48.130;-1.696;2022-09-09T09:02:17;17.90;99.90
17174;DHT22;8702;48.130;-1.696;2022-09-09T09:05:09;18.00;99.90
17174;DHT22;8702;48.130;-1.696;2022-09-09T09:07:51;18.10;99.90
17174;DHT22;8702;48.130;-1.696;2022-09-09T09:10:30;18.20;99.90
17174;DHT22;8702;48.130;-1.696;2022-09-09T09:13:00;18.30;99.90
17174;DHT22;8702;48.130;-1.696;2022-09-09T09:15:32;18.40;99.90
17174;DHT22;8702;48.130;-1.696;2022-09-09T09:18:02;18.50;99.90
17174;DHT22;8702;48.130;-1.696;2022-09-09T09:20:37;18.50;99.90
17174;DHT22;8702;48.130;-1.696;2022-09-09T09:23:12;18.50;99.90
17174;DHT22;8702;48.130;-1.696;2022-09-09T09:25:42;18.50;99.90
17174;DHT22;8702;48.130;-1.696;2022-09-09T09:28:15;18.40;99.90
17174;DHT22;8702;48.130;-1.696;2022-09-09T09:30:50;18.50;99.90
17174;DHT22;8702;48.130;-1.696;2022-09-09T09:33:21;18.50;99.90
17174;DHT22;8702;48.130;-1.696;2022-09-09T09:35:49;18.50;99.90
17174;DHT22;8702;48.130;-1.696;2022-09-09T09:38:18;18.50;99.90
17174;DHT22;8702;48.130;-1.696;2022-09-09T09:40:51;18.50;99.90
17174;DHT22;8702;48.130;-1.696;2022-09-09T09:43:21;18.50;99.90
17174;DHT22;8702;48.130;-1.696;2022-09-09T09:45:51;18.50;99.90
17174;DHT22;8702;48.130;-1.696;2022-09-09T09:48:18;18.50;99.90
17174;DHT22;8702;48.130;-1.696;2022-09-09T09:50:51;18.50;99.90
17174;DHT22;8702;48.130;-1.696;2022-09-09T09:53:22;18.60;99.90
17174;DHT22;8702;48.130;-1.696;2022-09-09T09:55:55;18.60;99.90
17174;DHT22;8702;48.130;-1.696;2022-09-09T09:58:22;18.70;99.90
17174;DHT22;8702;48.130;-1.696;2022-09-09T10:00:53;18.70;99.90
17174;DHT22;8702;48.130;-1.696;2022-09-09T10:03:25;18.60;99.90
17174;DHT22;8702;48.130;-1.696;2022-09-09T10:05:53;18.60;99.90
17174;DHT22;8702;48.130;-1.696;2022-09-09T10:08:21;18.50;99.90
17174;DHT22;8702;48.130;-1.696;2022-09-09T10:11:05;18.60;99.90
17174;DHT22;8702;48.130;-1.696;2022-09-09T10:13:40;18.70;99.90
17174;DHT22;8702;48.130;-1.696;2022-09-09T10:16:27;18.90;99.90
17174;DHT22;8702;48.130;-1.696;2022-09-09T10:19:01;19.00;99.90
17174;DHT22;8702;48.130;-1.696;2022-09-09T10:21:51;19.10;99.90
17174;DHT22;8702;48.130;-1.696;2022-09-09T10:24:38;19.20;99.90
17174;DHT22;8702;48.130;-1.696;2022-09-09T10:27:17;19.30;99.90
17174;DHT22;8702;48.130;-1.696;2022-09-09T10:30:03;19.40;99.90
17174;DHT22;8702;48.130;-1.696;2022-09-09T10:32:41;19.40;99.90
17174;DHT22;8702;48.130;-1.696;2022-09-09T10:35:24;19.50;99.90
17174;DHT22;8702;48.130;-1.696;2022-09-09T10:38:12;19.40;99.90
17174;DHT22;8702;48.130;-1.696;2022-09-09T10:40:47;19.30;99.90
17174;DHT22;8702;48.130;-1.696;2022-09-09T10:43:28;19.20;99.90
17174;DHT22;8702;48.130;-1.696;2022-09-09T10:46:06;19.30;99.90
17174;DHT22;8702;48.130;-1.696;2022-09-09T10:48:49;19.30;99.90
17174;DHT22;8702;48.130;-1.696;2022-09-09T10:51:25;19.40;99.90
17174;DHT22;8702;48.130;-1.696;2022-09-09T10:54:09;19.30;99.90
17174;DHT22;8702;48.130;-1.696;2022-09-09T10:56:42;19.40;99.90
17174;DHT22;8702;48.130;-1.696;2022-09-09T10:59:16;19.20;99.90
17174;DHT22;8702;48.130;-1.696;2022-09-09T11:01:48;19.20;99.90
17174;DHT22;8702;48.130;-1.696;2022-09-09T11:04:22;19.20;99.90
17174;DHT22;8702;48.130;-1.696;2022-09-09T11:06:54;19.30;99.90
17174;DHT22;8702;48.130;-1.696;2022-09-09T11:09:23;19.50;99.90
17174;DHT22;8702;48.130;-1.696;2022-09-09T11:11:54;19.60;99.90
17174;DHT22;8702;48.130;-1.696;2022-09-09T11:14:28;19.70;99.90
17174;DHT22;8702;48.130;-1.696;2022-09-09T11:16:58;19.70;99.90
17174;DHT22;8702;48.130;-1.696;2022-09-09T11:19:32;19.60;99.90
17174;DHT22;8702;48.130;-1.696;2022-09-09T11:22:03;19.60;99.90
17174;DHT22;8702;48.130;-1.696;2022-09-09T11:24:36;19.60;99.90
17174;DHT22;8702;48.130;-1.696;2022-09-09T11:27:10;19.60;99.90
17174;DHT22;8702;48.130;-1.696;2022-09-09T11:30:10;19.60;99.90
17174;DHT22;8702;48.130;-1.696;2022-09-09T11:36:00;19.70;99.90
17174;DHT22;8702;48.130;-1.696;2022-09-09T11:38:34;19.80;99.90
17174;DHT22;8702;48.130;-1.696;2022-09-09T11:41:07;19.80;99.90
17174;DHT22;8702;48.130;-1.696;2022-09-09T11:43:39;19.80;99.90
17174;DHT22;8702;48.130;-1.696;2022-09-09T11:46:08;19.70;99.90
17174;DHT22;8702;48.130;-1.696;2022-09-09T11:48:37;19.70;99.90
17174;DHT22;8702;48.130;-1.696;2022-09-09T11:51:08;19.70;99.90
17174;DHT22;8702;48.130;-1.696;2022-09-09T11:53:47;19.70;99.90
17174;DHT22;8702;48.130;-1.696;2022-09-09T11:56:24;19.80;99.90
17174;DHT22;8702;48.130;-1.696;2022-09-09T11:58:58;19.80;99.90
17174;DHT22;8702;48.130;-1.696;2022-09-09T12:01:44;19.90;99.90
17174;DHT22;8702;48.130;-1.696;2022-09-09T12:04:21;20.00;99.90
17174;DHT22;8702;48.130;-1.696;2022-09-09T12:06:58;19.90;99.90
17174;DHT22;8702;48.130;-1.696;2022-09-09T12:09:32;19.70;99.90
17174;DHT22;8702;48.130;-1.696;2022-09-09T12:12:07;19.60;99.90
17174;DHT22;8702;48.130;-1.696;2022-09-09T12:14:37;19.50;99.90
17174;DHT22;8702;48.130;-1.696;2022-09-09T12:17:18;19.50;99.90
17174;DHT22;8702;48.130;-1.696;2022-09-09T12:19:46;19.40;99.90
17174;DHT22;8702;48.130;-1.696;2022-09-09T12:22:23;19.40;99.90
17174;DHT22;8702;48.130;-1.696;2022-09-09T12:24:58;19.50;99.90
17174;DHT22;8702;48.130;-1.696;2022-09-09T12:27:33;19.60;99.90
17174;DHT22;8702;48.130;-1.696;2022-09-09T12:30:07;19.60;99.90
17174;DHT22;8702;48.130;-1.696;2022-09-09T12:32:36;19.70;99.90
17174;DHT22;8702;48.130;-1.696;2022-09-09T12:35:10;19.80;99.90
17174;DHT22;8702;48.130;-1.696;2022-09-09T12:37:41;20.00;99.90
17174;DHT22;8702;48.130;-1.696;2022-09-09T12:40:20;20.00;99.90
17174;DHT22;8702;48.130;-1.696;2022-09-09T12:42:47;20.00;99.90
17174;DHT22;8702;48.130;-1.696;2022-09-09T12:45:17;20.10;99.90
17174;DHT22;8702;48.130;-1.696;2022-09-09T12:47:46;20.20;99.90
17174;DHT22;8702;48.130;-1.696;2022-09-09T12:50:17;20.30;99.90
17174;DHT22;8702;48.130;-1.696;2022-09-09T12:52:47;20.40;99.90
17174;DHT22;8702;48.130;-1.696;2022-09-09T12:55:18;20.50;99.90
17174;DHT22;8702;48.130;-1.696;2022-09-09T12:57:48;20.60;99.90
17174;DHT22;8702;48.130;-1.696;2022-09-09T13:00:18;20.60;99.90
17174;DHT22;8702;48.130;-1.696;2022-09-09T13:02:50;20.60;99.90
17174;DHT22;8702;48.130;-1.696;2022-09-09T13:05:21;20.80;99.90
17174;DHT22;8702;48.130;-1.696;2022-09-09T13:07:50;20.80;99.90
17174;DHT22;8702;48.130;-1.696;2022-09-09T13:10:24;20.80;99.90
17174;DHT22;8702;48.130;-1.696;2022-09-09T13:12:53;20.80;99.90
17174;DHT22;8702;48.130;-1.696;2022-09-09T13:15:22;20.80;99.90
17174;DHT22;8702;48.130;-1.696;2022-09-09T13:17:57;20.80;99.90
17174;DHT22;8702;48.130;-1.696;2022-09-09T13:20:26;20.80;99.90
17174;DHT22;8702;48.130;-1.696;2022-09-09T13:22:55;20.80;99.90
17174;DHT22;8702;48.130;-1.696;2022-09-09T13:25:25;20.70;99.90
17174;DHT22;8702;48.130;-1.696;2022-09-09T13:27:58;20.70;99.90
17174;DHT22;8702;48.130;-1.696;2022-09-09T13:30:28;20.60;99.90
17174;DHT22;8702;48.130;-1.696;2022-09-09T13:33:21;20.60;99.90
17174;DHT22;8702;48.130;-1.696;2022-09-09T13:35:52;20.40;99.90
17174;DHT22;8702;48.130;-1.696;2022-09-09T13:38:22;20.20;99.90
17174;DHT22;8702;48.130;-1.696;2022-09-09T13:40:57;20.00;99.90
17174;DHT22;8702;48.130;-1.696;2022-09-09T13:43:28;19.80;99.90
17174;DHT22;8702;48.130;-1.696;2022-09-09T13:45:58;19.50;99.90
17174;DHT22;8702;48.130;-1.696;2022-09-09T13:48:26;19.30;99.90
17174;DHT22;8702;48.130;-1.696;2022-09-09T13:50:57;19.10;99.90
17174;DHT22;8702;48.130;-1.696;2022-09-09T13:53:26;19.00;99.90
17174;DHT22;8702;48.130;-1.696;2022-09-09T13:55:54;18.90;99.90
17174;DHT22;8702;48.130;-1.696;2022-09-09T13:58:22;18.90;99.90
17174;DHT22;8702;48.130;-1.696;2022-09-09T14:00:51;18.90;99.90
17174;DHT22;8702;48.130;-1.696;2022-09-09T14:03:18;18.80;99.90
17174;DHT22;8702;48.130;-1.696;2022-09-09T14:05:45;18.90;99.90
17174;DHT22;8702;48.130;-1.696;2022-09-09T14:08:20;18.80;99.90
17174;DHT22;8702;48.130;-1.696;2022-09-09T14:10:49;18.90;99.90
17174;DHT22;8702;48.130;-1.696;2022-09-09T14:13:17;19.00;99.90
17174;DHT22;8702;48.130;-1.696;2022-09-09T14:15:48;19.10;99.90
17174;DHT22;8702;48.130;-1.696;2022-09-09T14:18:15;19.10;99.90
17174;DHT22;8702;48.130;-1.696;2022-09-09T14:20:42;19.10;99.90
17174;DHT22;8702;48.130;-1.696;2022-09-09T14:23:11;19.30;99.90
17174;DHT22;8702;48.130;-1.696;2022-09-09T14:25:42;19.50;99.90
17174;DHT22;8702;48.130;-1.696;2022-09-09T14:28:12;19.60;99.90
17174;DHT22;8702;48.130;-1.696;2022-09-09T14:30:41;19.70;99.90
17174;DHT22;8702;48.130;-1.696;2022-09-09T14:33:10;19.80;99.90
17174;DHT22;8702;48.130;-1.696;2022-09-09T14:35:37;19.80;99.90
17174;DHT22;8702;48.130;-1.696;2022-09-09T14:38:07;19.70;99.90
17174;DHT22;8702;48.130;-1.696;2022-09-09T14:40:35;19.50;99.90
17174;DHT22;8702;48.130;-1.696;2022-09-09T14:43:02;19.20;99.90
17174;DHT22;8702;48.130;-1.696;2022-09-09T14:45:30;19.00;99.90
17174;DHT22;8702;48.130;-1.696;2022-09-09T14:47:57;18.80;99.90
17174;DHT22;8702;48.130;-1.696;2022-09-09T14:50:25;18.70;99.90
17174;DHT22;8702;48.130;-1.696;2022-09-09T14:52:52;18.70;99.90
17174;DHT22;8702;48.130;-1.696;2022-09-09T14:55:19;18.70;99.90
17174;DHT22;8702;48.130;-1.696;2022-09-09T14:57:47;18.70;99.90
17174;DHT22;8702;48.130;-1.696;2022-09-09T15:00:14;18.80;99.90
17174;DHT22;8702;48.130;-1.696;2022-09-09T15:02:43;18.80;99.90
17174;DHT22;8702;48.130;-1.696;2022-09-09T15:05:10;18.90;99.90
17174;DHT22;8702;48.130;-1.696;2022-09-09T15:07:37;19.00;99.90
17174;DHT22;8702;48.130;-1.696;2022-09-09T15:10:04;19.10;99.90
17174;DHT22;8702;48.130;-1.696;2022-09-09T15:12:32;19.20;99.90
17174;DHT22;8702;48.130;-1.696;2022-09-09T15:15:01;19.30;99.90
17174;DHT22;8702;48.130;-1.696;2022-09-09T15:17:28;19.50;99.90
17174;DHT22;8702;48.130;-1.696;2022-09-09T15:19:56;19.60;99.90
17174;DHT22;8702;48.130;-1.696;2022-09-09T15:22:23;19.80;99.90
17174;DHT22;8702;48.130;-1.696;2022-09-09T15:24:50;19.90;99.90
17174;DHT22;8702;48.130;-1.696;2022-09-09T15:27:17;20.00;99.90
17174;DHT22;8702;48.130;-1.696;2022-09-09T15:29:44;20.00;99.90
17174;DHT22;8702;48.130;-1.696;2022-09-09T15:32:12;20.00;99.90
17174;DHT22;8702;48.130;-1.696;2022-09-09T15:34:39;20.00;99.90
17174;DHT22;8702;48.130;-1.696;2022-09-09T15:37:10;20.00;99.90
17174;DHT22;8702;48.130;-1.696;2022-09-09T15:39:38;20.10;99.90
17174;DHT22;8702;48.130;-1.696;2022-09-09T15:42:05;20.10;99.90
17174;DHT22;8702;48.130;-1.696;2022-09-09T15:44:39;20.10;99.90
17174;DHT22;8702;48.130;-1.696;2022-09-09T15:47:07;20.20;99.90
17174;DHT22;8702;48.130;-1.696;2022-09-09T15:49:37;20.30;99.90
17174;DHT22;8702;48.130;-1.696;2022-09-09T15:52:04;20.30;99.90
17174;DHT22;8702;48.130;-1.696;2022-09-09T15:54:35;20.20;99.90
17174;DHT22;8702;48.130;-1.696;2022-09-09T15:57:06;20.30;99.90
17174;DHT22;8702;48.130;-1.696;2022-09-09T15:59:34;20.40;99.90